createdAt,value
2023-03-13T00:00:06.447Z,100750.75
2023-03-13T00:05:09.170Z,100747.94
2023-03-13T00:10:11.689Z,100739.84
2023-03-13T00:15:13.863Z,100739.38
2023-03-13T00:20:18.265Z,100735.38
2023-03-13T00:25:21.182Z,100734.41
2023-03-13T00:30:24.266Z,100742.41
2023-03-13T00:35:26.522Z,100746.69
2023-03-13T00:40:28.809Z,100718.63
2023-03-13T00:45:31.247Z,100730.72
2023-03-13T00:50:33.443Z,100750.59
2023-03-13T00:55:35.561Z,100743.91
2023-03-13T01:00:38.177Z,100735.06
2023-03-13T01:05:40.338Z,100746.72
2023-03-13T01:10:42.521Z,100761.84
2023-03-13T01:15:45.284Z,100779.44
2023-03-13T01:20:47.570Z,100774.88
2023-03-13T01:25:50.188Z,100778.06
2023-03-13T01:30:52.602Z,100772.84
2023-03-13T01:36:03.141Z,100764.75
2023-03-13T01:41:07.669Z,100761.50
2023-03-13T01:46:14.221Z,100779.06
2023-03-13T01:51:33.930Z,100782.28
2023-03-13T01:57:07.434Z,100781.59
2023-03-13T02:02:11.120Z,100796.34
2023-03-13T02:07:22.952Z,100793.53
2023-03-13T02:12:31.950Z,100807.91
2023-03-13T02:17:36.276Z,100792.41
2023-03-13T02:23:35.775Z,100815.47
2023-03-13T02:28:39.714Z,100810.31
2023-03-13T02:33:45.071Z,100777.69
2023-03-13T02:38:57.658Z,100797.44
2023-03-13T02:43:59.790Z,100829.25
2023-03-13T02:49:21.160Z,100822.88
2023-03-13T02:54:27.410Z,100853.81
2023-03-13T02:59:30.128Z,100849.44
2023-03-13T03:04:32.341Z,100839.59
2023-03-13T03:09:34.534Z,100851.16
2023-03-13T03:14:36.888Z,100860.66
2023-03-13T03:19:39.005Z,100875.22
2023-03-13T03:24:41.093Z,100877.03
2023-03-13T03:29:43.994Z,100891.59
2023-03-13T03:34:46.146Z,100888.34
2023-03-13T03:39:48.306Z,100900.41
2023-03-13T03:44:51.113Z,100897.50
2023-03-13T03:49:53.261Z,100934.75
2023-03-13T03:54:55.351Z,100937.31
2023-03-13T03:59:57.534Z,100947.22
2023-03-13T04:04:59.981Z,100934.88
2023-03-13T04:10:02.555Z,100956.63
2023-03-13T04:15:04.992Z,100975.84
2023-03-13T04:20:08.270Z,100954.44
2023-03-13T04:25:11.116Z,100978.09
2023-03-13T04:30:13.708Z,100997.88
2023-03-13T04:35:16.099Z,100988.00
2023-03-13T04:40:18.396Z,101009.44
2023-03-13T04:45:20.625Z,100999.25
2023-03-13T04:50:22.712Z,101016.34
2023-03-13T04:55:24.799Z,101030.41
2023-03-13T05:00:26.966Z,101035.94
2023-03-13T05:05:29.088Z,101046.66
2023-03-13T05:10:31.314Z,101043.97
2023-03-13T05:15:33.470Z,101038.91
2023-03-13T05:20:35.622Z,101052.78
2023-03-13T05:25:37.806Z,101056.63
2023-03-13T05:30:40.885Z,101050.81
2023-03-13T05:35:43.569Z,101059.66
2023-03-13T05:40:45.797Z,101057.00
2023-03-13T05:45:49.487Z,101058.50
2023-03-13T05:50:51.705Z,101063.19
2023-03-13T05:55:53.821Z,101100.75
2023-03-13T06:00:56.051Z,101095.00
2023-03-13T06:05:59.696Z,101100.16
2023-03-13T06:11:03.696Z,101095.28
2023-03-13T06:16:06.490Z,101110.75
2023-03-13T06:21:08.834Z,101106.44
2023-03-13T06:26:11.766Z,101098.34
2023-03-13T06:31:14.127Z,101133.91
2023-03-13T06:36:16.872Z,101107.38
2023-03-13T06:41:19.118Z,101122.00
2023-03-13T06:46:24.017Z,101143.47
2023-03-13T06:51:29.471Z,101141.00
2023-03-13T06:56:32.635Z,101134.44
2023-03-13T07:01:34.841Z,101135.28
2023-03-13T07:06:37.723Z,101133.63
2023-03-13T07:11:40.659Z,101144.03
2023-03-13T07:16:44.695Z,101158.72
2023-03-13T07:21:47.739Z,101135.78
2023-03-13T07:27:04.931Z,101158.59
2023-03-13T07:32:10.325Z,101150.69
2023-03-13T07:37:14.255Z,101166.03
2023-03-13T07:42:17.204Z,101149.25
2023-03-13T07:47:20.129Z,101158.00
2023-03-13T07:52:23.422Z,101148.78
2023-03-13T07:57:25.614Z,101152.13
2023-03-13T08:02:27.889Z,101150.81
2023-03-13T08:07:30.810Z,101148.06
2023-03-13T08:12:34.148Z,101169.44
2023-03-13T08:17:36.321Z,101169.91
2023-03-13T08:22:38.612Z,101168.78
2023-03-13T08:27:41.512Z,101135.03
2023-03-13T08:32:44.822Z,101164.19
2023-03-13T08:37:46.873Z,101135.38
2023-03-13T08:42:49.493Z,101163.41
2023-03-13T08:47:54.760Z,101124.47
2023-03-13T08:52:56.924Z,101144.50
2023-03-13T08:57:59.118Z,101150.66
2023-03-13T09:03:01.276Z,101130.78
2023-03-13T09:08:03.449Z,101130.22
2023-03-13T09:13:05.797Z,101123.16
2023-03-13T09:18:08.630Z,101130.19
2023-03-13T09:23:10.929Z,101113.81
2023-03-13T09:28:13.495Z,101111.25
2023-03-13T09:33:15.624Z,101130.13
2023-03-13T09:38:19.351Z,101110.06
2023-03-13T09:43:43.657Z,101132.31
2023-03-13T09:48:57.781Z,101123.16
2023-03-13T09:54:51.084Z,101124.63
2023-03-13T10:00:31.534Z,101129.44
2023-03-13T10:05:35.422Z,101115.31
2023-03-13T10:10:59.320Z,101123.97
2023-03-13T10:16:11.374Z,101096.41
2023-03-13T10:21:27.416Z,101118.41
2023-03-13T10:26:33.155Z,101102.94
2023-03-13T10:31:38.466Z,101112.16
2023-03-13T10:36:44.721Z,101111.78
2023-03-13T10:41:48.401Z,101115.50
2023-03-13T10:46:52.128Z,101109.41
2023-03-13T10:52:01.260Z,101104.78
2023-03-13T10:57:29.460Z,101097.06
2023-03-13T11:02:40.001Z,101096.81
2023-03-13T11:07:42.308Z,101082.84
2023-03-13T11:12:52.924Z,101099.66
2023-03-13T11:18:12.520Z,101074.09
2023-03-13T11:23:21.853Z,101071.22
2023-03-13T11:28:57.742Z,101078.72
2023-03-13T11:34:31.288Z,101074.81
2023-03-13T11:39:45.256Z,101064.41
2023-03-13T11:44:59.187Z,101042.97
2023-03-13T11:50:16.345Z,101027.97
2023-03-13T11:55:30.203Z,101034.00
2023-03-13T12:00:48.596Z,101029.22
2023-03-13T12:05:56.257Z,101012.22
2023-03-13T12:11:05.164Z,101015.13
2023-03-13T12:16:16.097Z,101002.91
2023-03-13T12:21:53.815Z,101008.38
2023-03-13T12:27:32.954Z,101008.41
2023-03-13T12:32:45.859Z,100965.09
2023-03-13T12:37:48.002Z,100985.41
2023-03-13T12:43:02.765Z,100986.84
2023-03-13T12:48:46.095Z,100977.28
2023-03-13T12:54:03.998Z,100969.81
2023-03-13T12:59:15.516Z,100955.78
2023-03-13T13:04:26.160Z,100937.84
2023-03-13T13:09:37.406Z,100972.25
2023-03-13T13:14:48.282Z,100973.50
2023-03-13T13:19:51.139Z,100950.75
2023-03-13T13:25:00.986Z,100936.63
2023-03-13T13:30:05.528Z,100954.88
2023-03-13T13:35:25.177Z,100947.50
2023-03-13T13:40:29.911Z,100957.19
2023-03-13T13:45:35.881Z,100946.97
2023-03-13T13:50:38.483Z,100924.72
2023-03-13T13:55:40.545Z,100959.28
2023-03-13T14:00:53.290Z,100957.72
2023-03-13T14:06:02.430Z,100956.69
2023-03-13T14:11:17.120Z,100933.97
2023-03-13T14:16:27.669Z,100956.13
2023-03-13T14:21:29.967Z,100955.97
2023-03-13T14:26:34.166Z,100939.50
2023-03-13T14:31:39.241Z,100964.47
2023-03-13T14:36:50.294Z,100954.06
2023-03-13T14:41:53.238Z,100968.25
2023-03-13T14:46:57.591Z,100957.97
2023-03-13T14:52:07.066Z,100968.75
2023-03-13T14:57:18.375Z,100958.34
2023-03-13T15:02:27.547Z,100970.50
2023-03-13T15:08:04.809Z,100968.13
2023-03-13T15:13:33.072Z,100972.59
2023-03-13T15:18:35.307Z,100959.81
2023-03-13T15:23:37.468Z,100959.03
2023-03-13T15:28:39.563Z,100968.25
2023-03-13T15:33:42.952Z,100960.50
2023-03-13T15:38:45.031Z,100972.28
2023-03-13T15:43:47.217Z,100978.41
2023-03-13T15:48:50.013Z,100969.69
2023-03-13T15:53:53.553Z,100966.00
2023-03-13T15:58:56.933Z,100975.78
2023-03-13T16:04:01.028Z,100973.97
2023-03-13T16:09:07.188Z,100995.72
2023-03-13T16:14:09.328Z,100990.28
2023-03-13T16:19:11.957Z,100994.25
2023-03-13T16:24:14.667Z,101014.06
2023-03-13T16:29:17.212Z,101013.19
2023-03-13T16:34:19.328Z,101010.94
2023-03-13T16:39:21.942Z,101007.19
2023-03-13T16:44:27.312Z,101021.31
2023-03-13T16:49:29.544Z,101014.06
2023-03-13T16:54:31.869Z,101022.53
2023-03-13T16:59:34.004Z,101004.19
2023-03-13T17:04:36.211Z,101027.84
2023-03-13T17:09:38.338Z,101027.88
2023-03-13T17:14:40.905Z,100995.56
2023-03-13T17:19:43.066Z,100973.03
2023-03-13T17:24:45.205Z,101005.19
2023-03-13T17:29:47.697Z,101002.41
2023-03-13T17:34:49.865Z,101006.72
2023-03-13T17:39:52.047Z,101010.41
2023-03-13T17:44:54.853Z,100999.34
2023-03-13T17:49:57.023Z,100978.69
2023-03-13T17:54:59.130Z,101030.78
2023-03-13T18:00:01.282Z,101017.69
2023-03-13T18:05:03.530Z,101019.25
2023-03-13T18:10:11.208Z,101036.91
2023-03-13T18:15:13.341Z,101043.00
2023-03-13T18:20:21.461Z,101023.69
2023-03-13T18:25:23.519Z,101045.78
2023-03-13T18:30:27.815Z,101044.69
2023-03-13T18:35:30.073Z,101036.63
2023-03-13T18:40:32.270Z,101064.13
2023-03-13T18:45:34.494Z,101074.91
2023-03-13T18:50:36.691Z,101080.44
2023-03-13T18:55:38.822Z,101072.88
2023-03-13T19:00:41.082Z,101077.31
2023-03-13T19:05:43.243Z,101086.69
2023-03-13T19:10:45.396Z,101080.22
2023-03-13T19:15:47.651Z,101067.63
2023-03-13T19:20:50.688Z,101085.78
2023-03-13T19:25:53.804Z,101091.16
2023-03-13T19:30:56.666Z,101108.19
2023-03-13T19:35:59.673Z,101084.69
2023-03-13T19:41:01.821Z,101103.25
2023-03-13T19:46:24.291Z,101109.81
2023-03-13T19:51:28.109Z,101114.19
2023-03-13T19:56:31.995Z,101118.81
2023-03-13T20:01:34.351Z,101100.25
2023-03-13T20:06:39.970Z,101117.22
2023-03-13T20:11:42.413Z,101105.31
2023-03-13T20:16:46.882Z,101089.44
2023-03-13T20:21:50.640Z,101100.19
2023-03-13T20:26:52.819Z,101119.13
2023-03-13T20:31:55.796Z,101108.16
2023-03-13T20:37:00.280Z,101101.72
2023-03-13T20:42:03.433Z,101102.78
2023-03-13T20:47:05.657Z,101106.28
2023-03-13T20:52:07.787Z,101084.31
2023-03-13T20:57:10.513Z,101103.75
2023-03-13T21:02:13.620Z,101090.06
2023-03-13T21:07:16.549Z,101084.81
2023-03-13T21:12:19.554Z,101082.31
2023-03-13T21:17:21.760Z,101082.34
2023-03-13T21:22:28.323Z,101068.03
2023-03-13T21:27:30.381Z,101076.63
2023-03-13T21:32:33.526Z,101091.41
2023-03-13T21:37:36.771Z,101077.16
2023-03-13T21:42:39.522Z,101067.59
2023-03-13T21:47:41.668Z,101079.66
2023-03-13T21:52:43.975Z,101074.78
2023-03-13T21:57:46.204Z,101078.16
2023-03-13T22:02:48.343Z,101088.03
2023-03-13T22:07:50.488Z,101081.47
2023-03-13T22:12:52.672Z,101074.78
2023-03-13T22:17:55.408Z,101061.72
2023-03-13T22:22:58.119Z,101070.19
2023-03-13T22:28:00.396Z,101073.19
2023-03-13T22:33:07.465Z,101070.53
2023-03-13T22:38:09.636Z,101067.84
2023-03-13T22:43:12.010Z,101064.84
2023-03-13T22:48:14.674Z,101060.53
2023-03-13T22:53:16.747Z,101049.31
2023-03-13T22:58:18.933Z,101060.38
2023-03-13T23:03:21.747Z,101055.03
2023-03-13T23:08:24.355Z,101029.06
2023-03-13T23:13:26.415Z,101034.22
2023-03-13T23:18:28.899Z,101009.56
2023-03-13T23:23:31.079Z,101046.44
2023-03-13T23:28:34.504Z,101049.91
2023-03-13T23:33:37.321Z,101024.16
2023-03-13T23:38:40.368Z,101048.69
2023-03-13T23:43:42.653Z,101037.13
2023-03-13T23:48:45.346Z,101027.50
2023-03-13T23:53:47.553Z,101041.91
2023-03-13T23:58:49.751Z,101012.88
